Time;durP1;ratioP1;P1;durP2;ratioP2;P2;SDS_P1;SDS_P2;PMS_P1;PMS_P2;Temp;Humidity;BMP_temperature;BMP_pressure;BME280_temperature;BME280_humidity;BME280_pressure;Samples;Min_cycle;Max_cycle;Signal;HPM_P1;HPM_P2
2022/01/17 00:01:45;;;;;;;26.23;10.13;;;7.10;99.90;;;;;;5059564;28;20536;-57
2022/01/17 00:04:12;;;;;;;22.27;9.97;;;7.10;99.90;;;;;;5056842;28;20298;-57
2022/01/17 00:06:41;;;;;;;20.90;9.73;;;7.20;99.90;;;;;;5055944;28;20235;-56
2022/01/17 00:09:07;;;;;;;21.83;9.27;;;7.20;99.90;;;;;;5059179;28;20260;-57
2022/01/17 00:11:37;;;;;;;18.63;9.73;;;7.20;99.90;;;;;;5059101;28;20301;-56
2022/01/17 00:14:10;;;;;;;27.83;9.30;;;7.20;99.90;;;;;;5056648;28;20233;-57
2022/01/17 00:16:46;;;;;;;18.70;8.17;;;7.20;99.90;;;;;;5056866;28;20232;-58
2022/01/17 00:21:50;;;;;;;19.10;7.47;;;7.20;99.90;;;;;;5057468;28;20214;-58
2022/01/17 00:24:21;;;;;;;21.27;8.40;;;7.20;99.90;;;;;;5057372;28;20238;-57
2022/01/17 00:26:48;;;;;;;17.70;8.13;;;7.20;99.90;;;;;;5055586;28;21850;-58
2022/01/17 00:29:15;;;;;;;17.90;8.27;;;7.20;99.90;;;;;;5057751;28;20267;-58
2022/01/17 00:31:42;;;;;;;15.80;7.87;;;7.10;99.90;;;;;;5057667;28;20243;-60
2022/01/17 00:34:09;;;;;;;15.83;7.30;;;7.20;99.90;;;;;;5057974;28;20206;-58
2022/01/17 00:36:36;;;;;;;15.50;7.73;;;7.20;99.90;;;;;;5057409;28;20240;-57
2022/01/17 00:39:03;;;;;;;17.30;7.43;;;7.20;99.90;;;;;;5056125;28;20339;-57
2022/01/17 00:41:30;;;;;;;26.27;7.90;;;7.10;99.90;;;;;;5056405;28;20204;-56
2022/01/17 00:43:57;;;;;;;16.10;7.83;;;7.00;99.90;;;;;;5055984;28;20259;-58
2022/01/17 00:46:24;;;;;;;23.20;7.97;;;7.00;99.90;;;;;;5056837;28;20305;-58
2022/01/17 00:48:51;;;;;;;15.57;6.83;;;7.10;99.90;;;;;;5056750;28;20202;-56
2022/01/17 00:51:19;;;;;;;13.23;5.93;;;7.10;99.90;;;;;;5058490;28;20294;-58
2022/01/17 00:53:46;;;;;;;17.47;5.53;;;7.10;99.90;;;;;;5056536;28;20210;-57
2022/01/17 00:56:13;;;;;;;18.60;5.13;;;7.10;99.90;;;;;;5058063;28;20655;-56
2022/01/17 00:58:40;;;;;;;12.03;4.83;;;7.10;99.90;;;;;;5057411;28;20284;-60
2022/01/17 01:01:08;;;;;;;8.60;4.00;;;7.20;99.90;;;;;;5054420;28;20627;-57
2022/01/17 01:03:35;;;;;;;8.63;3.63;;;7.20;99.90;;;;;;5058718;28;20226;-58
2022/01/17 01:06:02;;;;;;;10.30;3.20;;;7.20;99.90;;;;;;5055652;28;20247;-57
2022/01/17 01:08:30;;;;;;;11.73;3.20;;;7.30;99.90;;;;;;5055316;28;20259;-58
2022/01/17 01:10:57;;;;;;;9.27;3.43;;;7.30;99.90;;;;;;5058048;28;20211;-55
2022/01/17 01:13:24;;;;;;;11.13;2.77;;;7.30;99.90;;;;;;5057225;28;20986;-58
2022/01/17 01:21:23;;;;;;;8.17;2.83;;;7.30;99.90;;;;;;5056143;28;20312;-58
2022/01/17 01:29:20;;;;;;;7.60;2.20;;;7.20;99.90;;;;;;5056928;28;20243;-59
2022/01/17 01:31:55;;;;;;;9.20;3.20;;;7.20;99.90;;;;;;5054854;28;22231;-57
2022/01/17 01:34:32;;;;;;;11.53;2.93;;;7.20;99.90;;;;;;5055242;28;20202;-58
2022/01/17 01:36:59;;;;;;;7.97;2.73;;;7.10;99.90;;;;;;5055541;28;20239;-58
2022/01/17 01:39:26;;;;;;;9.20;3.40;;;7.00;99.90;;;;;;5055365;28;20233;-59
2022/01/17 01:41:52;;;;;;;14.63;3.63;;;7.00;99.90;;;;;;5055520;28;20286;-58
2022/01/17 01:44:22;;;;;;;12.60;3.73;;;7.10;99.90;;;;;;5056126;28;20694;-58
2022/01/17 01:46:51;;;;;;;7.23;3.40;;;7.00;99.90;;;;;;5055441;28;20235;-56
2022/01/17 01:49:19;;;;;;;10.93;3.60;;;7.00;99.90;;;;;;5057039;28;20203;-59
2022/01/17 01:51:47;;;;;;;8.57;2.50;;;7.10;99.90;;;;;;5055295;28;20241;-58
2022/01/17 01:54:15;;;;;;;8.23;2.77;;;6.90;99.90;;;;;;5053968;28;20290;-56
2022/01/17 01:56:44;;;;;;;11.13;2.60;;;6.80;99.90;;;;;;5055766;28;20254;-57
2022/01/17 01:59:12;;;;;;;11.53;2.43;;;6.90;99.90;;;;;;5057831;28;20288;-58
2022/01/17 02:01:40;;;;;;;8.70;2.63;;;6.80;99.90;;;;;;5056504;28;20225;-59
2022/01/17 02:04:07;;;;;;;9.10;2.63;;;6.80;99.90;;;;;;5054040;28;20229;-59
2022/01/17 02:06:34;;;;;;;5.53;2.60;;;6.70;99.90;;;;;;5055170;28;20219;-57
2022/01/17 02:09:02;;;;;;;9.67;2.47;;;6.70;99.90;;;;;;5055963;28;20233;-58
2022/01/17 02:11:31;;;;;;;9.27;2.20;;;6.60;99.90;;;;;;5057546;28;20261;-58
2022/01/17 02:13:59;;;;;;;4.53;2.23;;;6.30;99.90;;;;;;5056102;28;20206;-58
2022/01/17 02:16:26;;;;;;;9.10;3.10;;;6.30;99.90;;;;;;5059654;28;20245;-58
2022/01/17 02:18:53;;;;;;;6.73;2.33;;;6.20;99.90;;;;;;5059255;28;20291;-57
2022/01/17 02:24:22;;;;;;;5.30;1.83;;;6.00;99.90;;;;;;5024403;28;20206;-55
2022/01/17 02:26:51;;;;;;;4.60;2.10;;;5.90;99.90;;;;;;5056063;28;20228;-57
2022/01/17 02:29:19;;;;;;;8.87;2.30;;;5.80;99.90;;;;;;5058301;28;20196;-57
2022/01/17 02:31:47;;;;;;;12.10;2.57;;;5.80;99.90;;;;;;5060823;28;20452;-58
2022/01/17 02:34:14;;;;;;;14.60;2.47;;;5.90;99.90;;;;;;5057359;28;20201;-58
2022/01/17 02:36:42;;;;;;;11.13;2.23;;;5.80;99.90;;;;;;5053478;28;20253;-57
2022/01/17 02:39:09;;;;;;;6.97;2.00;;;5.70;99.90;;;;;;5059976;28;20244;-56
2022/01/17 02:41:39;;;;;;;6.47;1.50;;;5.50;99.90;;;;;;5058222;28;20307;-61
2022/01/17 02:44:08;;;;;;;6.47;1.50;;;5.40;99.90;;;;;;5060169;28;20324;-58
2022/01/17 02:46:35;;;;;;;4.73;1.90;;;5.40;99.90;;;;;;5057312;28;20240;-57
2022/01/17 02:49:03;;;;;;;6.87;1.77;;;5.30;99.90;;;;;;5058604;28;20549;-55
2022/01/17 02:51:30;;;;;;;6.90;2.13;;;5.30;99.90;;;;;;5057721;28;20296;-57
2022/01/17 02:53:58;;;;;;;6.30;2.17;;;5.20;99.90;;;;;;5055473;28;20292;-58
2022/01/17 02:56:25;;;;;;;3.27;1.37;;;5.20;99.90;;;;;;5060607;28;20670;-57
2022/01/17 02:58:52;;;;;;;4.67;1.47;;;5.10;99.90;;;;;;5057582;28;20214;-57
2022/01/17 03:01:25;;;;;;;7.77;1.40;;;5.20;99.90;;;;;;5058020;28;20259;-58
2022/01/17 03:03:53;;;;;;;5.20;1.90;;;5.20;99.90;;;;;;5058409;28;20292;-57
2022/01/17 03:06:20;;;;;;;5.20;1.43;;;5.10;99.90;;;;;;5058103;28;20269;-57
2022/01/17 03:08:47;;;;;;;5.30;1.27;;;5.00;99.90;;;;;;5057911;28;20282;-58
2022/01/17 03:11:17;;;;;;;8.40;1.87;;;5.00;99.90;;;;;;5058055;28;20195;-57
2022/01/17 03:13:44;;;;;;;6.77;1.97;;;4.90;99.90;;;;;;5059596;28;20203;-57
2022/01/17 03:16:16;;;;;;;6.20;1.50;;;4.90;99.90;;;;;;5056737;28;20216;-58
2022/01/17 03:18:52;;;;;;;7.20;1.77;;;4.80;99.90;;;;;;5057248;28;20706;-57
2022/01/17 03:21:20;;;;;;;5.97;1.60;;;4.80;99.90;;;;;;5058044;28;20227;-56
2022/01/17 03:23:49;;;;;;;11.83;1.60;;;4.90;99.90;;;;;;5057669;28;20691;-57
2022/01/17 03:26:16;;;;;;;5.90;1.40;;;5.00;99.90;;;;;;5057067;28;20211;-57
2022/01/17 03:28:43;;;;;;;7.20;1.53;;;4.90;99.90;;;;;;5057064;28;20217;-55
2022/01/17 03:31:11;;;;;;;6.20;1.50;;;4.90;99.90;;;;;;5059093;28;20279;-57
2022/01/17 03:33:38;;;;;;;7.10;1.40;;;4.90;99.90;;;;;;5055707;28;20194;-60
2022/01/17 03:36:06;;;;;;;3.10;1.43;;;4.90;99.90;;;;;;5056925;28;20295;-58
2022/01/17 03:38:33;;;;;;;6.03;1.50;;;4.80;99.90;;;;;;5058397;28;20870;-58
2022/01/17 03:41:02;;;;;;;7.07;2.00;;;4.70;99.90;;;;;;5059111;28;20421;-55
2022/01/17 03:43:30;;;;;;;8.90;1.50;;;4.70;99.90;;;;;;5058973;28;20227;-57
2022/01/17 03:45:57;;;;;;;10.77;1.90;;;4.70;99.90;;;;;;5057117;28;20270;-58
2022/01/17 03:48:27;;;;;;;6.87;1.70;;;4.60;99.90;;;;;;5057362;28;20234;-59
2022/01/17 03:50:56;;;;;;;4.67;1.60;;;4.50;99.90;;;;;;5058007;28;21728;-57
2022/01/17 03:53:23;;;;;;;7.87;1.90;;;4.60;99.90;;;;;;5058727;28;20289;-57
2022/01/17 03:55:51;;;;;;;7.00;1.83;;;4.60;99.90;;;;;;5058755;28;20244;-57
2022/01/17 03:58:19;;;;;;;8.07;2.23;;;4.60;99.90;;;;;;5058211;28;20203;-58
2022/01/17 04:00:47;;;;;;;7.90;2.30;;;4.60;99.90;;;;;;5058620;28;20224;-58
2022/01/17 04:03:15;;;;;;;6.87;1.40;;;4.60;99.90;;;;;;5058492;28;20207;-56
2022/01/17 04:05:42;;;;;;;5.27;2.30;;;4.70;99.90;;;;;;5055611;28;20727;-59
2022/01/17 04:08:10;;;;;;;2.90;1.60;;;4.70;99.90;;;;;;5057014;28;20307;-56
2022/01/17 04:10:38;;;;;;;6.17;1.70;;;4.60;99.90;;;;;;5058439;28;20205;-59
2022/01/17 04:13:05;;;;;;;6.90;1.93;;;4.60;99.90;;;;;;5056643;28;20195;-59
2022/01/17 04:15:35;;;;;;;7.13;1.80;;;4.50;99.90;;;;;;5055224;28;20269;-56
2022/01/17 04:18:04;;;;;;;5.03;1.70;;;4.50;99.90;;;;;;5057775;28;20254;-58
2022/01/17 04:20:31;;;;;;;7.17;2.07;;;4.40;99.90;;;;;;5053614;28;20287;-58
2022/01/17 04:23:01;;;;;;;5.77;1.77;;;4.50;99.90;;;;;;5057111;28;20218;-58
2022/01/17 04:25:31;;;;;;;5.03;1.93;;;4.50;99.90;;;;;;5055687;28;20296;-59
2022/01/17 04:28:00;;;;;;;6.90;2.03;;;4.60;99.90;;;;;;5057411;28;20247;-58
2022/01/17 04:30:28;;;;;;;6.60;2.13;;;4.70;99.90;;;;;;5056730;28;20191;-57
2022/01/17 04:32:56;;;;;;;5.60;2.10;;;4.60;99.90;;;;;;5057183;28;20253;-55
2022/01/17 04:35:25;;;;;;;7.03;2.13;;;4.40;99.90;;;;;;5054024;28;20665;-58
2022/01/17 04:37:59;;;;;;;7.37;2.17;;;4.50;99.90;;;;;;5054495;28;20211;-57
2022/01/17 04:40:34;;;;;;;10.70;2.33;;;4.50;99.90;;;;;;5056943;28;20298;-57
2022/01/17 04:43:12;;;;;;;8.70;2.40;;;4.50;99.90;;;;;;5055969;28;20202;-57
2022/01/17 04:45:39;;;;;;;4.20;2.13;;;4.60;99.90;;;;;;5053759;28;20247;-56
2022/01/17 04:48:07;;;;;;;8.63;2.27;;;4.60;99.90;;;;;;5057512;28;20220;-58
2022/01/17 04:50:33;;;;;;;5.17;2.10;;;4.60;99.90;;;;;;5054225;28;20224;-56
2022/01/17 04:53:01;;;;;;;7.30;2.30;;;4.50;99.90;;;;;;5057377;28;20260;-57
2022/01/17 04:55:28;;;;;;;7.33;2.27;;;4.50;99.90;;;;;;5054191;28;20590;-56
2022/01/17 04:57:58;;;;;;;7.73;2.30;;;4.50;99.90;;;;;;5058618;28;20672;-58
2022/01/17 05:00:26;;;;;;;6.87;1.70;;;4.60;99.90;;;;;;5056414;28;20289;-56
2022/01/17 05:02:54;;;;;;;8.13;2.40;;;4.60;99.90;;;;;;5055578;28;20229;-57
2022/01/17 05:05:22;;;;;;;5.77;3.17;;;4.60;99.90;;;;;;5054906;28;22286;-58
2022/01/17 05:07:49;;;;;;;7.83;2.10;;;4.60;99.90;;;;;;5056822;28;20258;-58
2022/01/17 05:10:17;;;;;;;6.73;2.30;;;4.70;99.90;;;;;;5055308;28;20222;-56
2022/01/17 05:12:45;;;;;;;10.30;2.30;;;4.60;99.90;;;;;;5056630;28;20646;-58
2022/01/17 05:15:28;;;;;;;7.83;2.77;;;4.60;99.90;;;;;;5052704;28;20301;-58
2022/01/17 05:20:42;;;;;;;8.27;2.60;;;4.60;99.90;;;;;;5026283;28;20294;-56
2022/01/17 05:23:09;;;;;;;9.23;2.10;;;4.50;99.90;;;;;;5056058;28;20293;-56
2022/01/17 05:25:36;;;;;;;5.93;2.17;;;4.40;99.90;;;;;;5053823;28;20262;-59
2022/01/17 05:28:03;;;;;;;8.03;2.50;;;4.40;99.90;;;;;;5056113;28;22187;-58
2022/01/17 05:30:30;;;;;;;5.93;2.77;;;4.40;99.90;;;;;;5055898;28;20252;-58
2022/01/17 05:33:00;;;;;;;4.97;2.77;;;4.50;99.90;;;;;;5056424;28;20609;-58
2022/01/17 05:35:27;;;;;;;6.90;2.40;;;4.60;99.90;;;;;;5052888;28;20224;-57
2022/01/17 05:37:54;;;;;;;9.30;2.87;;;4.60;99.90;;;;;;5054033;28;20657;-59
2022/01/17 05:40:21;;;;;;;9.20;2.77;;;4.60;99.90;;;;;;5055365;28;20575;-60
2022/01/17 05:42:48;;;;;;;11.07;3.23;;;4.50;99.90;;;;;;5070952;28;20735;-57
2022/01/17 05:45:16;;;;;;;9.70;3.40;;;4.40;99.90;;;;;;5053699;28;20293;-57
2022/01/17 05:47:44;;;;;;;9.43;3.07;;;4.50;99.90;;;;;;5057687;28;20221;-57
2022/01/17 05:50:11;;;;;;;6.07;2.90;;;4.40;99.90;;;;;;5057829;28;20198;-56
2022/01/17 05:52:38;;;;;;;13.43;4.07;;;4.50;99.90;;;;;;5060488;28;20644;-57
2022/01/17 05:55:07;;;;;;;9.60;3.47;;;4.60;99.90;;;;;;5059142;28;20235;-58
2022/01/17 05:57:34;;;;;;;8.30;3.70;;;4.60;99.90;;;;;;5060703;28;20289;-57
2022/01/17 06:00:04;;;;;;;7.20;3.57;;;4.60;99.90;;;;;;5059272;28;21831;-57
2022/01/17 06:02:31;;;;;;;5.80;3.37;;;4.50;99.90;;;;;;5060392;28;20213;-57
2022/01/17 06:04:58;;;;;;;7.17;3.73;;;4.50;99.90;;;;;;5061621;28;20327;-57
2022/01/17 06:07:25;;;;;;;9.00;4.40;;;4.50;99.90;;;;;;5060580;28;20653;-57
2022/01/17 06:09:52;;;;;;;7.53;3.97;;;4.50;99.90;;;;;;5060063;28;20223;-57
2022/01/17 06:12:18;;;;;;;11.43;4.07;;;4.50;99.90;;;;;;5058681;28;20612;-57
2022/01/17 06:14:46;;;;;;;9.77;3.90;;;4.50;99.90;;;;;;5057812;28;20199;-55
2022/01/17 06:17:12;;;;;;;9.40;4.37;;;4.50;99.90;;;;;;5058028;28;20291;-57
2022/01/17 06:19:39;;;;;;;11.80;5.63;;;4.50;99.90;;;;;;5059337;28;20265;-58
2022/01/17 06:22:07;;;;;;;14.07;6.03;;;4.50;99.90;;;;;;5059254;28;20244;-57
2022/01/17 06:24:34;;;;;;;12.63;5.47;;;4.50;99.90;;;;;;5058634;28;20215;-57
2022/01/17 06:27:02;;;;;;;10.00;5.90;;;4.50;99.90;;;;;;5056682;28;20703;-58
2022/01/17 06:29:29;;;;;;;12.10;5.53;;;4.60;99.90;;;;;;5059337;28;20653;-57
2022/01/17 06:31:56;;;;;;;17.47;6.57;;;4.80;99.90;;;;;;5061580;28;20633;-57
2022/01/17 06:34:43;;;;;;;13.13;5.97;;;4.70;99.90;;;;;;5062106;28;20226;-57
2022/01/17 06:37:11;;;;;;;9.77;6.07;;;4.80;99.90;;;;;;5056791;28;20229;-58
2022/01/17 06:39:38;;;;;;;17.53;7.03;;;4.80;99.90;;;;;;5057913;28;21165;-58
2022/01/17 06:42:05;;;;;;;12.33;6.20;;;4.70;99.90;;;;;;5057868;28;20733;-55
2022/01/17 06:44:32;;;;;;;13.63;6.67;;;4.80;99.90;;;;;;5055842;28;20235;-57
2022/01/17 06:46:59;;;;;;;16.20;6.60;;;4.70;99.90;;;;;;5058154;28;20705;-56
2022/01/17 06:49:26;;;;;;;13.93;6.87;;;4.80;99.90;;;;;;5057980;28;20691;-56
2022/01/17 06:51:53;;;;;;;12.33;6.97;;;4.80;99.90;;;;;;5058624;28;20290;-62
2022/01/17 06:54:20;;;;;;;13.67;7.03;;;4.70;99.90;;;;;;5059328;28;20196;-56
2022/01/17 06:56:47;;;;;;;15.37;7.17;;;4.70;99.90;;;;;;5058175;28;20207;-59
2022/01/17 06:59:15;;;;;;;11.87;6.67;;;4.60;99.90;;;;;;5053751;28;20201;-57
2022/01/17 07:01:42;;;;;;;18.27;6.90;;;4.60;99.90;;;;;;5048645;28;22147;-56
2022/01/17 07:04:10;;;;;;;14.77;7.37;;;4.60;99.90;;;;;;5051729;28;20251;-58
2022/01/17 07:06:40;;;;;;;14.90;7.90;;;4.70;99.90;;;;;;5054906;28;20315;-58
2022/01/17 07:09:14;;;;;;;13.97;6.77;;;4.60;99.90;;;;;;5038421;28;20270;-57
2022/01/17 07:11:41;;;;;;;17.67;7.40;;;4.60;99.90;;;;;;5054062;28;20261;-56
2022/01/17 07:14:09;;;;;;;14.90;7.10;;;4.60;99.90;;;;;;5045810;28;20219;-58
2022/01/17 07:16:41;;;;;;;16.93;7.77;;;4.70;99.90;;;;;;5049401;28;20843;-58
2022/01/17 07:19:08;;;;;;;18.03;8.27;;;4.80;99.90;;;;;;5054503;28;20690;-57
2022/01/17 07:21:35;;;;;;;15.07;7.13;;;4.80;99.90;;;;;;5054991;28;20649;-57
2022/01/17 07:24:03;;;;;;;17.60;8.40;;;4.80;99.90;;;;;;5056680;28;20218;-57
2022/01/17 07:26:30;;;;;;;15.40;6.93;;;4.80;99.90;;;;;;5056210;28;20249;-55
2022/01/17 07:28:56;;;;;;;17.00;7.53;;;4.70;99.90;;;;;;5058062;28;20632;-58
2022/01/17 07:31:23;;;;;;;13.60;7.97;;;4.60;99.90;;;;;;5056117;28;20273;-62
2022/01/17 07:33:56;;;;;;;11.90;7.10;;;4.70;99.90;;;;;;5053992;28;20375;-57
2022/01/17 07:36:28;;;;;;;18.33;8.03;;;4.70;99.90;;;;;;5054893;28;20856;-57
2022/01/17 07:38:59;;;;;;;17.90;8.40;;;4.80;99.90;;;;;;5057109;28;20218;-55
2022/01/17 07:41:26;;;;;;;20.30;7.83;;;4.80;99.90;;;;;;5056204;28;20205;-57
2022/01/17 07:43:58;;;;;;;14.27;8.13;;;4.90;99.90;;;;;;5055500;28;20670;-58
2022/01/17 07:46:33;;;;;;;16.57;7.97;;;5.00;99.90;;;;;;5057603;28;20274;-57
2022/01/17 07:49:10;;;;;;;16.63;7.97;;;4.90;99.90;;;;;;5057729;28;20216;-57
2022/01/17 07:51:40;;;;;;;14.43;8.40;;;5.00;99.90;;;;;;5057118;28;21077;-57
2022/01/17 07:54:10;;;;;;;16.40;7.80;;;4.90;99.90;;;;;;5055846;28;20192;-58
2022/01/17 07:56:37;;;;;;;13.20;7.67;;;4.90;99.90;;;;;;5050601;28;20342;-57
2022/01/17 07:59:07;;;;;;;12.53;8.10;;;4.80;99.90;;;;;;5059556;28;20667;-57
2022/01/17 08:01:35;;;;;;;12.57;8.50;;;4.70;99.90;;;;;;5058232;28;20521;-58
2022/01/17 08:04:03;;;;;;;15.57;8.03;;;4.70;99.90;;;;;;5054982;28;20296;-58
2022/01/17 08:06:32;;;;;;;19.27;8.73;;;4.80;99.90;;;;;;5053352;28;20243;-58
2022/01/17 08:08:59;;;;;;;16.07;8.30;;;4.70;99.90;;;;;;5056809;28;20647;-57
2022/01/17 08:11:26;;;;;;;14.50;7.93;;;4.80;99.90;;;;;;5055412;28;20222;-56
2022/01/17 08:13:53;;;;;;;14.93;8.37;;;5.00;99.90;;;;;;5058446;28;20350;-57
2022/01/17 08:16:20;;;;;;;13.37;7.40;;;5.00;99.90;;;;;;5055310;28;20843;-57
2022/01/17 08:18:47;;;;;;;13.83;8.20;;;5.00;99.90;;;;;;5055362;28;20209;-57
2022/01/17 08:21:14;;;;;;;19.07;8.77;;;5.00;99.90;;;;;;5053495;28;20231;-57
2022/01/17 08:23:41;;;;;;;16.73;8.27;;;5.10;99.90;;;;;;5056812;28;20195;-57
2022/01/17 08:26:08;;;;;;;18.87;7.93;;;5.00;99.90;;;;;;5057835;28;20786;-58
2022/01/17 08:28:35;;;;;;;17.60;7.93;;;5.10;99.90;;;;;;5051678;28;20208;-56
2022/01/17 08:31:02;;;;;;;16.83;8.63;;;5.00;99.90;;;;;;5056040;28;20664;-58
2022/01/17 08:33:48;;;;;;;16.77;9.20;;;5.00;99.90;;;;;;5056811;28;20299;-56
2022/01/17 08:36:19;;;;;;;17.57;9.40;;;5.10;99.90;;;;;;5058555;28;20282;-56
2022/01/17 08:38:47;;;;;;;18.53;9.17;;;5.20;99.90;;;;;;5059208;28;20266;-57
2022/01/17 08:41:16;;;;;;;19.63;9.33;;;5.20;99.90;;;;;;5056147;28;20511;-55
2022/01/17 08:43:49;;;;;;;19.87;9.13;;;5.20;99.90;;;;;;5075906;27;1261170;-59
2022/01/17 08:46:16;;;;;;;19.63;9.43;;;5.30;99.90;;;;;;5096034;28;20847;-58
2022/01/17 08:48:44;;;;;;;20.73;10.47;;;5.40;99.90;;;;;;5091914;28;20243;-57
2022/01/17 08:51:11;;;;;;;24.90;9.97;;;5.40;99.90;;;;;;5094300;28;20195;-58
2022/01/17 08:53:38;;;;;;;26.03;10.73;;;5.60;99.90;;;;;;5102569;28;20229;-57
2022/01/17 08:56:05;;;;;;;23.33;9.87;;;5.70;99.90;;;;;;5091624;28;20285;-57
2022/01/17 08:58:32;;;;;;;20.53;9.90;;;5.80;99.90;;;;;;5092978;28;20312;-56
2022/01/17 09:00:59;;;;;;;24.30;8.70;;;5.90;99.90;;;;;;5089297;28;20212;-58
2022/01/17 09:03:26;;;;;;;18.33;8.07;;;5.90;99.90;;;;;;5090188;28;20858;-58
2022/01/17 09:05:53;;;;;;;23.23;9.40;;;5.90;99.90;;;;;;5087653;28;20232;-56
2022/01/17 09:08:21;;;;;;;18.07;8.73;;;6.00;99.90;;;;;;5089979;28;20215;-57
2022/01/17 09:10:50;;;;;;;23.40;8.90;;;6.00;99.90;;;;;;5086096;28;20298;-59
2022/01/17 09:13:18;;;;;;;22.27;9.60;;;6.10;99.90;;;;;;5086886;28;23075;-56
2022/01/17 09:15:45;;;;;;;19.73;7.97;;;6.10;99.90;;;;;;5095397;28;20206;-57
2022/01/17 09:18:14;;;;;;;16.73;8.27;;;6.30;99.90;;;;;;5093932;28;20288;-57
2022/01/17 09:20:42;;;;;;;15.80;8.77;;;6.30;99.90;;;;;;5090760;28;21257;-56
2022/01/17 09:23:08;;;;;;;17.23;8.33;;;6.30;99.90;;;;;;5090943;28;20612;-57
2022/01/17 09:25:35;;;;;;;19.80;7.83;;;6.30;99.90;;;;;;5096083;28;20648;-58
2022/01/17 09:28:02;;;;;;;20.30;8.97;;;6.30;99.90;;;;;;5093332;28;20330;-57
2022/01/17 09:30:29;;;;;;;18.07;7.87;;;6.30;99.90;;;;;;5086653;28;20684;-55
2022/01/17 09:32:56;;;;;;;18.90;7.90;;;6.40;99.90;;;;;;5099509;28;20634;-58
2022/01/17 09:35:24;;;;;;;16.20;7.30;;;6.40;99.90;;;;;;5095527;28;20208;-57
2022/01/17 09:37:51;;;;;;;16.93;7.10;;;6.40;99.90;;;;;;5096209;28;20205;-57
2022/01/17 09:40:19;;;;;;;14.47;6.57;;;6.40;99.90;;;;;;5093189;28;20272;-56
2022/01/17 09:42:46;;;;;;;14.10;6.87;;;6.50;99.90;;;;;;5092349;28;20452;-57
2022/01/17 09:45:16;;;;;;;16.43;6.17;;;6.50;99.90;;;;;;5092844;28;20255;-55
2022/01/17 09:47:45;;;;;;;18.50;6.57;;;6.50;99.90;;;;;;5096714;28;20327;-57
2022/01/17 09:50:18;;;;;;;14.80;5.60;;;6.60;99.90;;;;;;5098392;28;20562;-58
2022/01/17 09:52:50;;;;;;;13.87;6.00;;;6.60;99.90;;;;;;5095873;28;20195;-57
2022/01/17 09:55:21;;;;;;;15.83;6.23;;;6.70;99.90;;;;;;5091026;28;20207;-57
2022/01/17 09:57:55;;;;;;;14.47;5.20;;;6.70;99.90;;;;;;5082808;28;20201;-57
2022/01/17 10:00:26;;;;;;;12.40;5.97;;;6.70;99.90;;;;;;5088094;28;20289;-58
2022/01/17 10:02:56;;;;;;;15.77;4.87;;;6.70;99.90;;;;;;5086564;28;20231;-58
2022/01/17 10:05:25;;;;;;;15.70;5.10;;;6.80;99.90;;;;;;5085794;28;20676;-58
2022/01/17 10:07:55;;;;;;;11.80;5.40;;;6.70;99.90;;;;;;5087996;28;20244;-57
2022/01/17 10:10:59;;;;;;;14.37;4.97;;;6.80;99.90;;;;;;5086088;28;20322;-58
2022/01/17 10:13:37;;;;;;;13.50;4.40;;;6.90;99.90;;;;;;5086682;28;20238;-57
2022/01/17 10:16:09;;;;;;;9.43;3.80;;;6.90;99.90;;;;;;5082520;28;20210;-57
2022/01/17 10:18:42;;;;;;;19.47;4.40;;;6.90;99.90;;;;;;5086897;28;20890;-55
2022/01/17 10:21:16;;;;;;;14.90;3.93;;;7.00;99.90;;;;;;5084883;28;20231;-58
2022/01/17 10:34:54;;;;;;;14.67;4.57;;;7.20;99.90;;;;;;5085231;28;20205;-58
2022/01/17 10:37:26;;;;;;;17.07;4.83;;;7.10;99.90;;;;;;5083953;28;20202;-57
2022/01/17 10:40:02;;;;;;;17.97;4.93;;;7.10;99.90;;;;;;5098021;27;20197;-58
2022/01/17 10:42:46;;;;;;;13.87;4.00;;;7.20;99.90;;;;;;5082230;28;20324;-57
2022/01/17 10:45:17;;;;;;;11.70;4.00;;;7.20;99.90;;;;;;5080816;28;20231;-58
2022/01/17 10:47:47;;;;;;;12.00;3.80;;;7.20;99.90;;;;;;5084723;28;20197;-57
2022/01/17 10:50:30;;;;;;;13.57;4.57;;;7.20;99.90;;;;;;5081404;28;20295;-56
2022/01/17 10:53:00;;;;;;;13.73;3.93;;;7.10;99.90;;;;;;5079658;28;20262;-54
2022/01/17 10:55:30;;;;;;;17.00;4.23;;;7.20;99.90;;;;;;5081139;28;20253;-60
2022/01/17 10:58:02;;;;;;;14.90;4.33;;;7.30;99.90;;;;;;5081616;28;20204;-58
2022/01/17 11:00:32;;;;;;;14.37;3.77;;;7.40;99.90;;;;;;5073722;28;20201;-58
2022/01/17 11:03:03;;;;;;;13.87;3.70;;;7.30;99.90;;;;;;5082583;28;20226;-59
2022/01/17 11:05:32;;;;;;;15.03;4.23;;;7.30;99.90;;;;;;5076997;28;20927;-54
2022/01/17 11:08:02;;;;;;;14.20;4.77;;;7.30;99.90;;;;;;5082207;28;20193;-56
2022/01/17 11:10:44;;;;;;;21.63;4.73;;;7.30;99.90;;;;;;5077918;28;20271;-56
2022/01/17 11:13:16;;;;;;;14.53;3.70;;;7.40;99.90;;;;;;5077056;28;20294;-56
2022/01/17 11:15:46;;;;;;;16.67;4.57;;;7.50;99.90;;;;;;5072605;28;20276;-55
2022/01/17 11:18:21;;;;;;;17.10;4.20;;;7.40;99.90;;;;;;5083360;28;20212;-58
2022/01/17 11:20:58;;;;;;;8.70;3.47;;;7.60;99.90;;;;;;5081718;28;20215;-58
2022/01/17 11:23:27;;;;;;;18.07;4.13;;;7.50;99.90;;;;;;5082862;28;20212;-58
2022/01/17 11:25:55;;;;;;;14.83;4.37;;;7.60;99.90;;;;;;5080205;28;20411;-57
2022/01/17 11:28:26;;;;;;;12.53;4.10;;;7.70;99.90;;;;;;5074890;28;20225;-57
2022/01/17 11:30:56;;;;;;;16.83;4.27;;;7.70;99.90;;;;;;5073012;28;20263;-55
2022/01/17 11:33:25;;;;;;;12.70;4.20;;;7.70;99.90;;;;;;5077231;28;20209;-57
2022/01/17 11:35:53;;;;;;;17.00;5.13;;;7.70;99.90;;;;;;5084595;27;20200;-60
2022/01/17 11:38:25;;;;;;;19.97;4.40;;;7.80;99.90;;;;;;5077735;28;20275;-57
2022/01/17 11:40:52;;;;;;;18.07;4.60;;;7.80;99.90;;;;;;5080138;28;20237;-58
2022/01/17 11:43:23;;;;;;;15.67;4.63;;;8.00;99.90;;;;;;5066704;28;20234;-58
2022/01/17 11:45:54;;;;;;;12.47;3.30;;;8.00;99.90;;;;;;5074177;28;20566;-58
2022/01/17 11:48:28;;;;;;;16.10;3.90;;;8.10;99.90;;;;;;5074277;28;20376;-57
2022/01/17 11:50:57;;;;;;;12.37;3.53;;;8.20;99.90;;;;;;5074989;28;20201;-57
2022/01/17 11:53:27;;;;;;;20.13;3.60;;;8.20;99.90;;;;;;5078451;28;20224;-57
2022/01/17 11:55:54;;;;;;;15.13;4.00;;;8.20;99.90;;;;;;5077599;28;20205;-57
2022/01/17 11:58:25;;;;;;;14.53;3.63;;;8.30;99.90;;;;;;5079284;28;20212;-56
2022/01/17 12:01:01;;;;;;;20.37;3.83;;;8.30;99.90;;;;;;5075749;28;20237;-57
2022/01/17 12:03:49;;;;;;;13.77;3.30;;;8.30;99.90;;;;;;5076290;28;20221;-54
2022/01/17 12:06:28;;;;;;;14.47;3.77;;;8.30;99.90;;;;;;5076000;28;20288;-58
2022/01/17 12:09:16;;;;;;;17.33;3.67;;;8.30;99.90;;;;;;5082075;28;20238;-57
2022/01/17 12:11:43;;;;;;;24.17;4.00;;;8.30;99.90;;;;;;5073547;28;20246;-56
2022/01/17 12:14:30;;;;;;;18.50;4.03;;;8.30;99.90;;;;;;5075931;28;20290;-57
2022/01/17 12:17:19;;;;;;;14.40;3.13;;;8.40;99.90;;;;;;5070397;28;20297;-55
2022/01/17 12:20:09;;;;;;;12.93;3.17;;;8.40;99.90;;;;;;5073810;28;20660;-56
2022/01/17 12:22:39;;;;;;;10.73;2.97;;;8.40;99.90;;;;;;5078212;28;20211;-56
2022/01/17 12:25:21;;;;;;;11.33;3.23;;;8.40;99.90;;;;;;5077206;28;20822;-58
2022/01/17 12:27:49;;;;;;;16.53;3.50;;;8.40;99.90;;;;;;5076232;28;20234;-58
2022/01/17 12:30:17;;;;;;;15.70;3.77;;;8.40;99.90;;;;;;5080491;28;20642;-58
2022/01/17 12:32:51;;;;;;;14.80;3.73;;;8.50;99.90;;;;;;5070969;28;20206;-55
2022/01/17 12:35:22;;;;;;;15.97;3.67;;;8.50;99.90;;;;;;5077301;28;20641;-56
2022/01/17 12:37:53;;;;;;;21.63;4.07;;;8.50;99.90;;;;;;5076462;28;21182;-58
2022/01/17 12:40:31;;;;;;;13.43;4.73;;;8.60;99.90;;;;;;5077872;28;20648;-58
2022/01/17 12:43:11;;;;;;;16.40;3.23;;;8.60;99.90;;;;;;5077250;28;20318;-58
2022/01/17 12:45:48;;;;;;;14.77;3.30;;;8.60;99.90;;;;;;5078376;28;20222;-58
2022/01/17 12:48:20;;;;;;;15.40;3.50;;;8.70;99.90;;;;;;5079978;28;20203;-57
2022/01/17 12:50:50;;;;;;;22.57;3.47;;;8.70;99.90;;;;;;5076858;28;20242;-57
2022/01/17 12:53:19;;;;;;;14.97;2.83;;;8.70;99.90;;;;;;5079332;28;20268;-59
2022/01/17 12:55:52;;;;;;;15.33;3.00;;;8.70;99.90;;;;;;5078452;28;20203;-58
2022/01/17 12:58:28;;;;;;;11.50;3.20;;;8.70;99.90;;;;;;5078283;28;20195;-58
2022/01/17 13:01:01;;;;;;;12.67;2.63;;;8.80;99.90;;;;;;5078184;28;20259;-58
2022/01/17 13:03:33;;;;;;;12.93;2.60;;;8.80;99.90;;;;;;5080533;28;20570;-58
2022/01/17 13:06:02;;;;;;;11.03;2.90;;;8.80;99.90;;;;;;5074205;28;21278;-57
2022/01/17 13:08:30;;;;;;;14.10;2.93;;;8.80;99.90;;;;;;5079760;28;20220;-58
2022/01/17 13:10:57;;;;;;;11.20;2.67;;;8.80;99.90;;;;;;5076318;28;20256;-58
2022/01/17 13:13:24;;;;;;;16.80;2.77;;;8.90;99.90;;;;;;5079233;28;20991;-59
2022/01/17 13:16:04;;;;;;;12.07;3.27;;;8.90;99.90;;;;;;5073513;28;20202;-59
2022/01/17 13:18:35;;;;;;;15.63;3.10;;;9.00;99.90;;;;;;5079864;28;20206;-58
2022/01/17 13:21:04;;;;;;;13.70;2.53;;;9.10;99.90;;;;;;5079242;28;20730;-58
2022/01/17 13:23:44;;;;;;;16.30;3.07;;;9.00;99.90;;;;;;5077601;28;20229;-58
2022/01/17 13:26:17;;;;;;;12.93;3.67;;;9.10;99.90;;;;;;5077639;28;20228;-58
2022/01/17 13:28:51;;;;;;;17.83;3.30;;;9.00;99.90;;;;;;5076164;28;20283;-58
2022/01/17 13:31:23;;;;;;;9.57;3.17;;;9.10;99.90;;;;;;5079342;28;20997;-58
2022/01/17 13:33:51;;;;;;;16.33;3.20;;;9.20;99.90;;;;;;5075697;28;20514;-57